Time;durP1;ratioP1;P1;durP2;ratioP2;P2;SDS_P1;SDS_P2;PMS_P1;PMS_P2;Temp;Humidity;BMP_temperature;BMP_pressure;BME280_temperature;BME280_humidity;BME280_pressure;Samples;Min_cycle;Max_cycle;Signal;HPM_P1;HPM_P2
2022/12/17 13:06:47;;;;;;;16.75;9.65;;;;;;;-2.85;77.10;99777.88;4968580;28;20046;-73
2022/12/17 13:09:15;;;;;;;17.73;9.95;;;;;;;-2.83;76.50;99767.44;4973364;28;20048;-74
2022/12/17 13:11:53;;;;;;;18.45;11.05;;;;;;;-2.97;76.91;99784.16;4972166;28;20041;-74
2022/12/17 13:14:27;;;;;;;18.15;11.10;;;;;;;-3.05;77.20;99779.94;4982418;28;20609;-74
2022/12/17 13:16:54;;;;;;;14.80;8.80;;;;;;;-3.02;77.27;99782.47;4963066;28;20045;-72
2022/12/17 13:19:43;;;;;;;16.45;9.90;;;;;;;-2.96;77.51;99788.47;4985239;28;20140;-71
2022/12/17 13:22:32;;;;;;;19.70;8.50;;;;;;;-3.00;77.62;99793.75;4975189;28;20056;-70
2022/12/17 13:25:22;;;;;;;14.60;8.48;;;;;;;-2.63;76.88;99802.75;4974322;28;20033;-74
2022/12/17 13:28:28;;;;;;;18.67;10.85;;;;;;;-2.87;76.73;99789.22;4960182;28;20064;-74
2022/12/17 13:31:22;;;;;;;14.18;7.15;;;;;;;-2.87;77.44;99797.91;4974909;28;20136;-68
2022/12/17 13:34:29;;;;;;;17.08;9.93;;;;;;;-2.81;76.55;99782.16;4998352;28;20052;-74
2022/12/17 13:37:14;;;;;;;16.42;10.27;;;;;;;-2.89;76.87;99780.56;4973363;28;20056;-74
2022/12/17 13:40:15;;;;;;;18.27;9.80;;;;;;;-2.95;77.00;99774.56;4963004;28;20041;-73
2022/12/17 13:43:20;;;;;;;16.05;8.60;;;;;;;-3.00;77.17;99757.25;4994498;28;20033;-73
2022/12/17 13:45:57;;;;;;;18.33;9.60;;;;;;;-3.01;77.53;99756.38;4977217;28;20034;-73
2022/12/17 13:48:32;;;;;;;21.10;11.18;;;;;;;-3.04;77.49;99761.63;4960060;28;20033;-74
2022/12/17 13:51:05;;;;;;;15.60;10.18;;;;;;;-3.00;77.58;99758.09;4989983;28;20056;-73
2022/12/17 13:53:50;;;;;;;21.30;11.98;;;;;;;-3.00;77.67;99752.88;4995518;28;20566;-74
2022/12/17 13:56:40;;;;;;;13.77;8.68;;;;;;;-2.99;77.52;99749.41;4995924;28;20052;-73
2022/12/17 13:59:17;;;;;;;;;;;;;;;-2.92;77.75;99742.31;4962558;28;20046;-76
2022/12/17 14:02:22;;;;;;;17.23;9.30;;;;;;;-2.92;77.33;99735.38;4963802;28;20387;-73
2022/12/17 14:04:57;;;;;;;20.05;11.95;;;;;;;-2.88;77.22;99730.97;4993664;28;20488;-74
2022/12/17 14:07:28;;;;;;;16.52;8.63;;;;;;;-2.93;77.17;99736.25;4961137;28;20523;-72
2022/12/17 14:10:17;;;;;;;12.10;7.57;;;;;;;-2.85;77.52;99730.06;4986376;28;20045;-74
2022/12/17 14:13:02;;;;;;;16.30;9.18;;;;;;;-2.94;77.00;99725.88;4995390;28;20055;-73
2022/12/17 14:20:12;;;;;;;24.00;10.73;;;;;;;-2.90;77.21;99752.75;5108348;23;21485;-74
2022/12/17 14:22:43;;;;;;;10.60;7.43;;;;;;;-2.83;76.93;99751.78;4989358;28;20041;-72
2022/12/17 14:25:21;;;;;;;11.82;5.45;;;;;;;-2.88;76.89;99733.59;4990425;28;20029;-73
2022/12/17 14:27:59;;;;;;;17.05;9.35;;;;;;;-2.89;76.40;99734.47;5026069;28;20049;-69
2022/12/17 14:30:30;;;;;;;17.50;9.88;;;;;;;-2.90;76.84;99737.97;5028131;28;20107;-74
2022/12/17 14:32:57;;;;;;;18.73;9.23;;;;;;;-2.70;76.06;99735.00;5032228;28;20498;-74
2022/12/17 14:35:24;;;;;;;16.83;9.57;;;;;;;-2.64;75.61;99741.00;5018856;28;20037;-74
2022/12/17 14:37:49;;;;;;;12.95;6.55;;;;;;;-2.60;76.02;99734.00;5018759;28;20123;-71
2022/12/17 14:40:14;;;;;;;15.75;8.38;;;;;;;-2.69;76.02;99726.31;5000608;28;20096;-74
2022/12/17 14:42:39;;;;;;;23.23;11.32;;;;;;;-2.79;75.94;99730.81;5005311;28;20105;-73
2022/12/17 14:45:15;;;;;;;16.35;9.95;;;;;;;-2.79;76.32;99728.22;5028213;28;20032;-74
2022/12/17 14:47:57;;;;;;;14.30;9.73;;;;;;;-2.84;76.52;99735.25;5038919;28;20040;-75
2022/12/17 14:50:26;;;;;;;24.65;9.43;;;;;;;-2.70;76.40;99725.44;5038915;28;20067;-73
2022/12/17 14:52:53;;;;;;;16.02;9.75;;;;;;;-2.73;76.21;99729.88;5039713;28;20048;-75
2022/12/17 14:55:35;;;;;;;18.77;10.60;;;;;;;-2.86;76.93;99717.91;5021631;28;20044;-73
2022/12/17 14:58:12;;;;;;;23.17;11.05;;;;;;;-2.90;77.22;99727.53;5020724;28;20044;-75
2022/12/17 15:00:58;;;;;;;19.25;9.82;;;;;;;-2.92;77.49;99724.06;5020500;28;20079;-72
2022/12/17 15:03:27;;;;;;;19.63;11.20;;;;;;;-2.88;77.84;99689.25;5038233;28;20098;-74
2022/12/17 15:05:58;;;;;;;16.70;9.43;;;;;;;-2.87;77.67;99687.50;5020577;28;20557;-75
2022/12/17 15:08:24;;;;;;;15.07;9.38;;;;;;;-2.65;77.61;99684.50;5020119;28;20051;-74
2022/12/17 15:10:49;;;;;;;15.15;9.38;;;;;;;-2.49;76.95;99672.03;5020571;28;20485;-74
2022/12/17 15:13:14;;;;;;;19.30;10.85;;;;;;;-2.69;76.42;99668.91;5037915;28;20048;-73
2022/12/17 15:15:38;;;;;;;15.07;8.73;;;;;;;-2.60;76.75;99663.53;5037382;28;20109;-73
2022/12/17 15:18:03;;;;;;;19.50;10.80;;;;;;;-2.71;76.33;99674.16;5016652;28;20121;-74
2022/12/17 15:20:28;;;;;;;20.77;11.43;;;;;;;-2.80;76.43;99668.22;4999911;28;20053;-73
2022/12/17 15:22:53;;;;;;;16.67;10.15;;;;;;;-2.75;76.86;99664.66;4999733;28;20102;-74
2022/12/17 15:25:19;;;;;;;8.40;6.18;;;;;;;-2.76;77.22;99652.50;5007687;28;20470;-68
2022/12/17 15:27:45;;;;;;;20.02;10.85;;;;;;;-2.58;76.16;99640.88;5017235;28;20033;-68
2022/12/17 15:30:15;;;;;;;16.13;9.93;;;;;;;-2.72;76.13;99633.31;4999321;28;20062;-73
2022/12/17 15:32:41;;;;;;;15.27;8.18;;;;;;;-2.82;76.54;99652.59;4998784;28;20045;-64
2022/12/17 15:35:06;;;;;;;18.95;11.07;;;;;;;-2.92;76.60;99666.69;5013033;28;20499;-64
2022/12/17 15:37:31;;;;;;;16.48;10.85;;;;;;;-2.93;77.27;99676.25;5016337;28;20763;-65
2022/12/17 15:39:56;;;;;;;17.77;10.93;;;;;;;-2.94;77.11;99674.56;5016031;28;20502;-66
2022/12/17 15:45:04;;;;;;;23.17;12.05;;;;;;;-2.74;76.66;99679.44;5008499;28;20105;-64
2022/12/17 15:47:29;;;;;;;19.25;10.30;;;;;;;-2.74;76.57;99665.53;4998388;28;20044;-65
2022/12/17 15:49:54;;;;;;;19.95;12.23;;;;;;;-2.81;76.78;99650.84;5016066;28;20036;-65
2022/12/17 15:52:19;;;;;;;14.13;8.05;;;;;;;-2.70;76.74;99657.59;4998423;28;20049;-64
2022/12/17 15:54:44;;;;;;;22.00;12.05;;;;;;;-2.74;76.48;99670.75;5014824;28;20037;-64
2022/12/17 15:57:10;;;;;;;20.45;10.85;;;;;;;-2.83;76.85;99690.03;5016280;28;20701;-64
2022/12/17 15:59:35;;;;;;;29.60;14.13;;;;;;;-2.83;76.76;99708.28;5016380;28;20566;-64
2022/12/17 16:02:00;;;;;;;11.40;6.55;;;;;;;-2.76;77.07;99690.78;4998545;28;20910;-64
2022/12/17 16:04:27;;;;;;;18.58;10.35;;;;;;;-2.65;76.36;99686.25;5016233;28;20499;-64
2022/12/17 16:06:52;;;;;;;19.42;11.20;;;;;;;-2.86;76.59;99697.03;5014977;28;20041;-65
2022/12/17 16:09:17;;;;;;;25.20;12.55;;;;;;;-2.87;76.89;99679.66;4981856;28;20455;-64
2022/12/17 16:11:43;;;;;;;19.33;11.82;;;;;;;-2.98;77.38;99667.66;5014779;28;20090;-64
2022/12/17 16:14:08;;;;;;;19.27;7.70;;;;;;;-2.80;77.33;99689.97;4962402;28;20037;-64
2022/12/17 16:16:33;;;;;;;17.92;10.57;;;;;;;-2.83;77.16;99699.59;5013002;28;20095;-64
2022/12/17 16:18:58;;;;;;;20.65;12.05;;;;;;;-2.88;77.03;99680.56;5015970;28;20037;-64
2022/12/17 16:21:23;;;;;;;21.88;12.02;;;;;;;-2.95;77.15;99665.00;5030639;28;20053;-63
2022/12/17 16:23:49;;;;;;;20.67;11.80;;;;;;;-2.88;77.04;99663.16;5000507;28;20044;-64
2022/12/17 16:26:14;;;;;;;19.23;12.35;;;;;;;-2.96;76.97;99657.22;5017119;28;20094;-64
2022/12/17 16:28:42;;;;;;;20.13;11.70;;;;;;;-2.94;77.59;99673.72;5033994;28;20163;-65
2022/12/17 16:31:10;;;;;;;21.48;12.60;;;;;;;-2.96;77.40;99668.50;5032478;28;20143;-73
2022/12/17 16:33:40;;;;;;;16.75;9.40;;;;;;;-2.63;77.00;99668.81;5028621;28;20038;-65
2022/12/17 16:36:10;;;;;;;21.77;11.18;;;;;;;-2.84;76.43;99658.75;5007208;28;20127;-65
2022/12/17 16:38:43;;;;;;;22.50;11.68;;;;;;;-2.76;76.73;99641.22;5031578;28;20036;-66
2022/12/17 16:41:08;;;;;;;19.73;11.00;;;;;;;-2.81;76.65;99658.69;5034657;28;20097;-65
2022/12/17 16:43:33;;;;;;;23.20;10.98;;;;;;;-2.80;76.25;99663.00;5016241;28;20032;-64
2022/12/17 16:46:00;;;;;;;18.40;11.50;;;;;;;-2.86;76.46;99650.94;5034853;28;20105;-66
2022/12/17 16:48:27;;;;;;;14.45;8.57;;;;;;;-2.85;76.46;99667.47;5014261;28;20043;-65
2022/12/17 16:50:53;;;;;;;27.45;13.95;;;;;;;-3.02;76.92;99672.94;5025469;28;20033;-71
2022/12/17 16:53:19;;;;;;;23.13;11.32;;;;;;;-3.09;77.07;99674.81;5013664;28;20479;-72
2022/12/17 16:55:45;;;;;;;22.27;12.30;;;;;;;-3.09;77.41;99661.78;5026483;28;20041;-72
2022/12/17 16:58:12;;;;;;;24.75;12.82;;;;;;;-3.04;77.46;99662.53;5035228;28;20044;-73
2022/12/17 17:00:38;;;;;;;20.85;11.57;;;;;;;-2.98;77.23;99669.41;5001060;28;20516;-72
2022/12/17 17:03:05;;;;;;;24.35;13.02;;;;;;;-2.99;77.30;99659.88;4989606;28;20044;-73
2022/12/17 17:05:31;;;;;;;22.77;12.07;;;;;;;-3.06;77.23;99643.47;5038532;28;20071;-74
2022/12/17 17:07:56;;;;;;;21.95;12.13;;;;;;;-3.10;77.53;99646.13;5025480;28;20075;-72
2022/12/17 17:10:21;;;;;;;17.92;11.48;;;;;;;-2.93;77.54;99639.75;5042416;28;20059;-73
2022/12/17 17:12:46;;;;;;;20.90;11.20;;;;;;;-2.88;77.17;99634.47;5020202;28;20035;-70
2022/12/17 17:15:11;;;;;;;19.52;10.95;;;;;;;-3.00;77.34;99624.25;5028814;28;20045;-69
2022/12/17 17:17:36;;;;;;;11.43;6.38;;;;;;;-2.84;77.25;99612.66;5036042;28;20036;-74
2022/12/17 17:20:01;;;;;;;22.80;12.25;;;;;;;-2.96;76.96;99592.88;5004094;28;20077;-69
2022/12/17 17:22:26;;;;;;;25.02;13.77;;;;;;;-3.04;77.33;99594.72;4994224;28;20044;-72
2022/12/17 17:24:51;;;;;;;22.40;11.85;;;;;;;-3.09;77.70;99585.28;5013817;28;20039;-71
2022/12/17 17:27:17;;;;;;;20.60;11.88;;;;;;;-3.10;78.04;99591.38;5016118;28;20044;-73
2022/12/17 17:29:42;;;;;;;20.45;11.75;;;;;;;-3.10;77.90;99583.56;5034456;28;20032;-74
2022/12/17 17:32:08;;;;;;;17.38;11.05;;;;;;;-3.10;78.26;99580.97;5010036;28;20037;-74
2022/12/17 17:34:33;;;;;;;24.05;13.00;;;;;;;-3.09;78.05;99582.69;5031227;28;20055;-74
2022/12/17 17:36:59;;;;;;;21.85;13.05;;;;;;;-3.09;77.88;99582.69;5026838;28;20044;-71
2022/12/17 17:39:26;;;;;;;23.80;13.98;;;;;;;-3.05;77.80;99571.31;5014433;28;20543;-72
2022/12/17 17:41:53;;;;;;;21.90;11.75;;;;;;;-3.09;78.20;99573.13;5033451;28;20059;-76
2022/12/17 17:44:19;;;;;;;21.35;10.75;;;;;;;-3.07;78.24;99589.59;5055304;28;20040;-71
2022/12/17 17:46:45;;;;;;;24.42;12.05;;;;;;;-3.08;78.19;99573.97;5037761;28;20470;-70
2022/12/17 17:49:11;;;;;;;23.83;12.80;;;;;;;-3.09;78.12;99572.25;5012205;28;20041;-72
2022/12/17 17:51:40;;;;;;;23.40;12.73;;;;;;;-3.05;77.70;99561.72;5042820;28;20040;-73
2022/12/17 17:54:06;;;;;;;26.88;12.68;;;;;;;-3.10;78.13;99560.09;5033783;28;20043;-71
2022/12/17 17:56:33;;;;;;;26.92;13.63;;;;;;;-2.90;77.70;99551.91;5035268;28;20163;-72
2022/12/17 17:59:07;;;;;;;28.15;13.27;;;;;;;-3.04;77.59;99546.94;5004209;28;20047;-71
2022/12/17 18:01:35;;;;;;;24.13;13.85;;;;;;;-3.10;77.71;99557.50;5019260;28;20406;-74
2022/12/17 18:04:06;;;;;;;22.35;11.85;;;;;;;-3.13;77.94;99547.97;5022930;28;20799;-69
2022/12/17 18:06:36;;;;;;;22.83;12.57;;;;;;;-3.15;78.21;99564.53;5015879;28;20032;-73
2022/12/17 18:09:02;;;;;;;23.27;11.80;;;;;;;-3.15;78.17;99565.38;5018974;28;20124;-73
2022/12/17 18:11:30;;;;;;;15.82;8.52;;;;;;;-3.05;78.28;99573.94;4984225;28;20131;-70
2022/12/17 18:13:57;;;;;;;21.10;11.15;;;;;;;-3.06;78.38;99574.81;5000858;28;20029;-73
2022/12/17 18:16:49;;;;;;;23.77;11.98;;;;;;;-2.85;77.75;99550.94;5021882;28;20041;-71
2022/12/17 18:19:17;;;;;;;20.70;11.60;;;;;;;-2.99;77.35;99548.59;5016058;28;20068;-71
2022/12/17 18:21:46;;;;;;;24.50;13.43;;;;;;;-3.10;77.62;99563.56;5015981;28;20048;-72
2022/12/17 18:24:18;;;;;;;24.15;11.80;;;;;;;-3.07;78.08;99562.66;5016889;28;20449;-71
2022/12/17 18:26:46;;;;;;;22.45;12.38;;;;;;;-3.04;77.84;99568.66;5014083;28;20434;-72
2022/12/17 18:29:16;;;;;;;23.38;13.57;;;;;;;-3.13;77.93;99563.63;4998218;28;20121;-73
2022/12/17 18:31:42;;;;;;;20.27;11.85;;;;;;;-3.09;77.75;99559.22;5021596;28;20048;-71
2022/12/17 18:34:11;;;;;;;24.42;12.55;;;;;;;-3.15;77.78;99559.31;5006203;28;20043;-71
2022/12/17 18:36:40;;;;;;;27.60;13.02;;;;;;;-3.19;78.29;99555.91;5039039;28;20055;-72
2022/12/17 18:39:14;;;;;;;24.17;12.95;;;;;;;-3.08;78.46;99560.94;5040527;28;20064;-72
2022/12/17 18:44:26;;;;;;;;;;;;;;;-3.04;77.79;99553.00;5022865;28;20050;-70
2022/12/17 18:46:51;;;;;;;23.02;11.45;;;;;;;-3.13;78.21;99552.31;5037796;28;19920;-72
2022/12/17 18:49:19;;;;;;;24.38;12.10;;;;;;;-3.15;78.14;99559.31;5023967;28;20044;-73
2022/12/17 18:51:47;;;;;;;24.13;12.73;;;;;;;-3.17;78.84;99556.75;5048629;28;20056;-73
2022/12/17 18:54:15;;;;;;;23.45;13.45;;;;;;;-3.14;78.27;99533.22;5023012;28;20137;-72
2022/12/17 18:56:42;;;;;;;22.77;12.52;;;;;;;-3.13;78.98;99532.31;5038122;28;20049;-72
2022/12/17 18:59:07;;;;;;;20.00;11.48;;;;;;;-3.10;79.08;99520.97;5019850;28;20159;-72
2022/12/17 19:01:35;;;;;;;18.67;10.52;;;;;;;-3.08;79.20;99530.50;5038051;28;20139;-72
2022/12/17 19:04:06;;;;;;;19.85;11.70;;;;;;;-3.07;78.95;99520.94;5029484;28;20040;-72
2022/12/17 19:06:34;;;;;;;24.00;12.60;;;;;;;-3.09;79.41;99531.38;5010603;28;20041;-72
2022/12/17 19:09:00;;;;;;;20.55;11.85;;;;;;;-3.08;78.92;99520.06;5015219;28;20067;-72
2022/12/17 19:11:27;;;;;;;20.67;12.00;;;;;;;-3.07;78.98;99510.50;5037255;28;20039;-73
2022/12/17 19:13:53;;;;;;;20.77;11.45;;;;;;;-3.07;79.14;99507.91;4999231;28;20140;-72
2022/12/17 19:16:22;;;;;;;21.05;11.48;;;;;;;-3.08;79.22;99495.75;5023209;28;20036;-72
2022/12/17 19:18:53;;;;;;;19.50;11.80;;;;;;;-3.03;79.12;99496.50;5038074;28;20144;-74
2022/12/17 19:21:21;;;;;;;18.80;11.55;;;;;;;-3.07;78.83;99497.47;5037095;28;20123;-72
2022/12/17 19:23:48;;;;;;;20.75;12.55;;;;;;;-3.08;78.97;99485.31;5037072;28;20445;-71
2022/12/17 19:26:18;;;;;;;21.88;11.57;;;;;;;-3.06;78.83;99483.53;5015969;28;20112;-72
2022/12/17 19:28:47;;;;;;;21.42;11.73;;;;;;;-3.07;78.58;99500.94;5030996;28;20044;-71
2022/12/17 19:31:14;;;;;;;20.08;12.02;;;;;;;-3.07;79.00;99497.47;5015993;28;20085;-72
2022/12/17 19:33:41;;;;;;;18.55;10.70;;;;;;;-3.07;79.24;99503.53;5036532;28;20070;-69
2022/12/17 19:36:15;;;;;;;19.50;10.55;;;;;;;-3.05;79.01;99487.88;5018389;28;20044;-69
2022/12/17 19:38:42;;;;;;;17.88;10.50;;;;;;;-3.09;78.75;99487.06;5029806;28;20048;-68
2022/12/17 19:41:16;;;;;;;21.13;11.63;;;;;;;-3.05;78.85;99478.28;5014578;28;20024;-71
2022/12/17 19:43:46;;;;;;;22.55;11.65;;;;;;;-3.04;78.89;99476.53;5015743;28;21586;-66
2022/12/17 19:46:18;;;;;;;21.50;12.02;;;;;;;-3.03;78.93;99475.63;5000548;28;20044;-66
2022/12/17 19:48:46;;;;;;;25.55;12.18;;;;;;;-3.09;78.86;99474.03;5002955;28;20049;-66
2022/12/17 19:51:14;;;;;;;18.02;9.73;;;;;;;-3.10;78.59;99471.44;5013105;28;20091;-66
2022/12/17 19:53:42;;;;;;;18.73;10.93;;;;;;;-3.09;78.57;99470.56;5016835;28;20037;-65
2022/12/17 19:56:28;;;;;;;20.02;11.95;;;;;;;-3.05;78.91;99454.81;5013861;28;20592;-65
2022/12/17 19:59:01;;;;;;;17.85;9.88;;;;;;;-3.08;78.84;99459.25;5016446;28;20140;-65
2022/12/17 20:01:41;;;;;;;18.58;10.35;;;;;;;-3.06;78.60;99453.13;5014236;28;20039;-64
2022/12/17 20:04:09;;;;;;;18.83;11.10;;;;;;;-3.12;78.49;99449.75;4984539;28;20040;-65
2022/12/17 20:06:35;;;;;;;16.52;9.98;;;;;;;-3.12;78.62;99441.94;5021442;28;20552;-65
2022/12/17 20:09:03;;;;;;;16.48;8.77;;;;;;;-3.12;78.72;99428.91;4994750;28;20045;-65
2022/12/17 20:11:32;;;;;;;16.80;9.38;;;;;;;-3.15;78.50;99439.38;5016262;28;20040;-66
2022/12/17 20:14:25;;;;;;;16.75;9.90;;;;;;;-3.15;78.77;99447.19;5014005;28;20118;-66
2022/12/17 20:16:53;;;;;;;16.95;10.60;;;;;;;-3.12;78.76;99426.28;5013713;28;20037;-69
2022/12/17 20:19:25;;;;;;;16.88;9.77;;;;;;;-3.18;78.64;99432.50;5022960;28;20047;-67
2022/12/17 20:21:52;;;;;;;15.38;9.73;;;;;;;-3.22;78.68;99427.34;4998340;28;20520;-66
2022/12/17 20:24:19;;;;;;;14.70;9.65;;;;;;;-3.23;78.34;99420.44;5014590;28;20096;-67
2022/12/17 20:26:47;;;;;;;15.75;8.95;;;;;;;-3.25;78.89;99402.19;4980571;28;20479;-66
2022/12/17 20:29:13;;;;;;;22.70;12.52;;;;;;;-3.23;78.83;99395.22;5017565;28;20041;-66
2022/12/17 20:31:37;;;;;;;17.33;9.55;;;;;;;-3.21;79.11;99400.41;4996914;28;20039;-66
2022/12/17 20:34:05;;;;;;;18.20;9.63;;;;;;;-3.22;78.89;99403.91;4996106;28;20498;-63
2022/12/17 20:36:31;;;;;;;18.45;10.25;;;;;;;-3.21;78.99;99392.59;5006590;28;20036;-63
2022/12/17 20:38:56;;;;;;;16.58;10.57;;;;;;;-3.22;78.88;99396.06;4984301;28;20043;-65
2022/12/17 20:41:23;;;;;;;16.38;9.90;;;;;;;-3.21;79.16;99382.16;5037695;28;20040;-62
2022/12/17 20:43:49;;;;;;;18.55;9.85;;;;;;;-3.16;78.82;99390.75;5039675;28;20196;-64
2022/12/17 20:46:14;;;;;;;21.10;11.50;;;;;;;-3.15;78.53;99393.31;5007563;28;20117;-65
2022/12/17 20:48:40;;;;;;;19.85;10.88;;;;;;;-3.14;78.73;99388.94;5039816;28;20071;-63
2022/12/17 20:51:19;;;;;;;19.00;10.60;;;;;;;-3.16;78.90;99375.13;5014488;28;20619;-65
2022/12/17 20:53:46;;;;;;;21.25;11.95;;;;;;;-3.19;78.78;99370.81;5009967;28;20098;-65
2022/12/17 20:56:14;;;;;;;19.00;10.10;;;;;;;-3.18;79.08;99343.00;5018334;28;20123;-65
2022/12/17 20:58:41;;;;;;;19.98;10.38;;;;;;;-3.18;79.19;99343.00;5033949;28;20040;-65
2022/12/17 21:01:10;;;;;;;18.65;10.32;;;;;;;-3.21;78.96;99343.06;5021445;28;20064;-65
2022/12/17 21:03:36;;;;;;;15.88;9.40;;;;;;;-3.21;79.14;99343.91;4980213;28;20083;-65
2022/12/17 21:06:16;;;;;;;22.75;10.55;;;;;;;-3.17;79.51;99339.50;5012794;28;20037;-63
2022/12/17 21:08:42;;;;;;;14.25;9.07;;;;;;;-3.18;78.94;99328.22;4999855;28;20775;-65
2022/12/17 21:11:08;;;;;;;20.13;12.15;;;;;;;-3.22;79.31;99323.94;5021693;28;20062;-65
2022/12/17 21:13:34;;;;;;;15.50;10.10;;;;;;;-3.23;78.96;99330.06;5020788;28;20585;-62
2022/12/17 21:16:03;;;;;;;17.65;9.57;;;;;;;-3.21;79.06;99314.38;5016158;28;20060;-64
2022/12/17 21:18:29;;;;;;;18.55;10.30;;;;;;;-3.23;79.16;99305.72;5016655;28;20411;-65
2022/12/17 21:21:03;;;;;;;19.33;11.13;;;;;;;-3.24;79.20;99301.41;4997089;28;20053;-63
2022/12/17 21:23:29;;;;;;;17.23;10.05;;;;;;;-3.27;79.16;99284.06;5013346;28;20052;-64
2022/12/17 21:26:11;;;;;;;18.25;9.55;;;;;;;-3.27;79.29;99276.25;5035704;28;20050;-71
2022/12/17 21:28:37;;;;;;;11.05;6.65;;;;;;;-3.22;79.27;99273.56;5036445;28;20048;-72
2022/12/17 21:31:02;;;;;;;13.75;8.20;;;;;;;-3.31;79.21;99264.19;4993454;28;20047;-69
2022/12/17 21:33:27;;;;;;;16.92;10.38;;;;;;;-3.36;79.29;99263.44;5001862;28;20665;-70
2022/12/17 21:36:10;;;;;;;18.60;9.50;;;;;;;-3.32;79.29;99245.09;5012898;28;20453;-70
2022/12/17 21:38:35;;;;;;;17.75;10.10;;;;;;;-3.34;79.53;99246.88;5032800;28;20048;-69
2022/12/17 21:41:14;;;;;;;14.63;8.48;;;;;;;-3.33;79.37;99232.94;5019300;28;20040;-72
2022/12/17 21:43:39;;;;;;;14.93;8.52;;;;;;;-3.38;79.73;99226.97;5034648;28;20102;-68
2022/12/17 21:46:04;;;;;;;17.60;10.57;;;;;;;-3.41;79.40;99229.66;5008105;28;20044;-69
2022/12/17 21:48:29;;;;;;;17.95;10.40;;;;;;;-3.45;79.77;99227.16;5025306;28;20083;-69
2022/12/17 21:50:54;;;;;;;15.95;9.82;;;;;;;-3.42;80.15;99227.94;5016233;28;20065;-70
2022/12/17 21:53:19;;;;;;;15.70;9.85;;;;;;;-3.42;80.33;99235.78;5004335;28;20041;-72
2022/12/17 21:55:44;;;;;;;16.55;9.55;;;;;;;-3.39;80.21;99229.63;5020775;28;20044;-70
2022/12/17 21:58:09;;;;;;;17.95;10.13;;;;;;;-3.40;80.35;99223.56;5003251;28;20037;-70
2022/12/17 22:00:34;;;;;;;16.23;9.18;;;;;;;-3.41;80.58;99219.25;5020528;28;20044;-69
2022/12/17 22:02:59;;;;;;;18.15;10.85;;;;;;;-3.38;80.73;99229.56;5016404;28;20076;-69
2022/12/17 22:05:24;;;;;;;17.25;10.20;;;;;;;-3.38;80.34;99228.72;4999520;28;20069;-69
2022/12/17 22:07:48;;;;;;;15.45;8.55;;;;;;;-3.35;80.61;99229.53;4996786;28;20509;-70
2022/12/17 22:10:13;;;;;;;21.30;11.05;;;;;;;-3.35;80.72;99219.09;5006501;28;20047;-71
2022/12/17 22:15:22;;;;;;;20.00;10.68;;;;;;;-3.30;81.07;99211.19;5034317;28;20033;-64
2022/12/17 22:17:47;;;;;;;15.77;9.43;;;;;;;-3.24;81.29;99202.34;5006771;28;20039;-63
2022/12/17 22:20:15;;;;;;;15.38;8.90;;;;;;;-3.30;80.67;99195.56;5029801;28;20064;-65
2022/12/17 22:22:39;;;;;;;17.38;9.77;;;;;;;-3.27;80.88;99200.66;5016772;28;20048;-64
2022/12/17 22:25:05;;;;;;;15.52;9.48;;;;;;;-3.24;80.87;99200.59;5007440;28;20060;-64
2022/12/17 22:27:30;;;;;;;14.48;8.43;;;;;;;-3.25;80.85;99171.97;4996489;28;20087;-69
2022/12/17 22:35:21;;;;;;;14.85;9.02;;;;;;;-3.24;80.92;99165.84;5015556;28;20033;-68
2022/12/17 22:37:46;;;;;;;14.18;9.02;;;;;;;-3.27;81.27;99164.19;5023328;28;20054;-69
2022/12/17 22:40:11;;;;;;;16.90;9.38;;;;;;;-3.26;81.28;99152.84;5003147;28;20043;-63
2022/12/17 22:45:19;;;;;;;15.57;8.80;;;;;;;-3.27;81.31;99143.31;5037754;28;20395;-63
2022/12/17 22:47:44;;;;;;;12.88;7.72;;;;;;;-3.23;81.39;99133.69;5037929;28;20468;-64
2022/12/17 22:50:09;;;;;;;13.55;8.40;;;;;;;-3.22;81.33;99123.22;5037159;28;20510;-63
2022/12/17 22:52:34;;;;;;;14.68;8.07;;;;;;;-3.25;81.30;99122.44;5013769;28;20039;-65
2022/12/17 22:54:58;;;;;;;14.50;8.27;;;;;;;-3.25;81.62;99107.66;4996833;28;20131;-64
2022/12/17 22:57:23;;;;;;;9.98;6.85;;;;;;;-3.24;81.65;99106.78;4998390;28;20051;-65
2022/12/17 22:59:48;;;;;;;11.30;6.57;;;;;;;-3.26;81.37;99113.75;5032384;28;20447;-63
2022/12/17 23:02:13;;;;;;;11.30;7.38;;;;;;;-3.25;81.23;99107.66;5033547;28;20033;-64
2022/12/17 23:04:38;;;;;;;13.10;6.97;;;;;;;-3.24;81.59;99105.91;5000360;28;20123;-65
2022/12/17 23:07:02;;;;;;;13.00;7.45;;;;;;;-3.26;80.96;99097.25;5021746;28;20045;-64
2022/12/17 23:09:27;;;;;;;10.30;6.28;;;;;;;-3.22;81.57;99088.50;4981005;28;20573;-65
2022/12/17 23:11:52;;;;;;;9.88;6.28;;;;;;;-3.23;81.48;99087.63;5017213;28;20069;-65
2022/12/17 23:14:18;;;;;;;12.50;6.72;;;;;;;-3.22;81.08;99078.91;5023598;28;20074;-67
2022/12/17 23:16:43;;;;;;;9.68;6.30;;;;;;;-3.22;81.25;99083.28;5018667;28;20036;-66
2022/12/17 23:19:08;;;;;;;15.63;6.03;;;;;;;-3.22;81.30;99067.63;4978963;28;20047;-64
2022/12/17 23:21:34;;;;;;;10.85;6.47;;;;;;;-3.23;80.88;99055.50;5009026;28;20118;-64
2022/12/17 23:23:58;;;;;;;13.40;7.63;;;;;;;-3.21;80.74;99058.91;5014392;28;20403;-63
2022/12/17 23:26:29;;;;;;;15.75;7.38;;;;;;;-3.21;80.57;99044.16;5015338;28;20399;-63
2022/12/17 23:28:58;;;;;;;9.77;5.95;;;;;;;-3.19;80.97;99046.72;5013431;28;20068;-64
2022/12/17 23:31:25;;;;;;;10.13;5.93;;;;;;;-3.18;81.05;99030.19;5025141;28;20638;-66
2022/12/17 23:33:50;;;;;;;8.38;5.82;;;;;;;-3.17;81.14;99037.97;5026825;28;20044;-67
2022/12/17 23:36:17;;;;;;;9.13;6.10;;;;;;;-3.16;80.86;99034.44;4982371;28;20041;-66
2022/12/17 23:38:42;;;;;;;9.43;5.57;;;;;;;-3.14;81.21;99039.63;5020207;28;20051;-65
2022/12/17 23:41:24;;;;;;;12.50;6.70;;;;;;;-3.05;81.46;99034.19;4982995;28;20045;-63
2022/12/17 23:43:49;;;;;;;8.68;6.07;;;;;;;-3.07;81.28;99031.63;5019799;28;20041;-64
2022/12/17 23:46:15;;;;;;;9.40;6.43;;;;;;;-3.07;81.31;99025.53;5021468;28;20044;-67
2022/12/17 23:48:41;;;;;;;10.85;6.10;;;;;;;-3.05;81.29;99015.94;5018745;28;20036;-63
2022/12/17 23:51:07;;;;;;;11.05;6.18;;;;;;;-3.02;81.32;99014.06;4988054;28;20052;-63
2022/12/17 23:53:33;;;;;;;12.27;6.15;;;;;;;-3.03;81.38;99006.28;4994136;28;20033;-65
2022/12/17 23:56:07;;;;;;;9.38;5.57;;;;;;;-2.98;81.94;99004.44;4996726;28;20434;-65
2022/12/17 23:58:33;;;;;;;9.10;5.00;;;;;;;-2.99;81.11;98992.28;5015433;28;20041;-64
